Flight Track Log - Related Links

Times and Time Zones

All times are in EDT time to prevent confusion due to time zone crossing. See the SWA325 flight status page for this flight to view local times or setup timezone preferences in your user account.

Time Position Orientation Groundspeed Altitude Reporting Facility
EDT Latitude Longitude Course Direction KTS MPH feet Rate Location/Type
Thu 06:40:44 AM 38.7500 -90.3833 303° West 156 180 1,500  Level Gateway (St. Louis) TRACON
Thu 06:41:44 AM 38.7833 -90.4500 303° West 212 244 3,200 1,532 Climbing Gateway (St. Louis) TRACON
Thu 06:42:18 AM 38.7892 -90.4894 281° West 225 259 3,900 2,147 Climbing Kansas City Center
Thu 06:43:19 AM 38.8128 -90.5767 289° West 244 281 6,600 3,174 Climbing Kansas City Center
Thu 06:44:19 AM 38.8372 -90.6686 289° West 260 299 10,300 2,600 Climbing Kansas City Center
Thu 06:45:19 AM 38.8656 -90.7775 289° West 302 348 11,800 2,182 Climbing Kansas City Center
Thu 06:46:20 AM 38.8708 -90.9036 273° West 337 388 14,700 2,876 Climbing Kansas City Center
Thu 06:47:20 AM 38.8725 -91.0361 271° West 358 412 17,600 2,700 Climbing Kansas City Center
Thu 06:48:20 AM 38.8747 -91.1714 271° West 370 426 20,100 2,350 Climbing Kansas City Center
Thu 06:49:20 AM 38.8781 -91.3094 272° West 382 440 22,300 2,033 Climbing Kansas City Center
Thu 06:50:21 AM 38.8808 -91.4531 271° West 398 458 24,200 1,785 Climbing Kansas City Center
Thu 06:51:21 AM 38.8831 -91.6031 271° West 415 478 25,900 1,700 Climbing Kansas City Center
Thu 06:52:21 AM 38.8842 -91.7592 271° West 423 487 27,600 2,088 Climbing Kansas City Center
Thu 06:54:22 AM 38.8864 -92.0961 271° West 427 491 32,200 2,287 Climbing Kansas City Center
Thu 06:55:22 AM 38.8883 -92.2356 271° West 402 463 34,500 1,934 Climbing Kansas City Center
Thu 06:56:23 AM 38.8886 -92.3717 270° West 387 445 36,100 1,160 Climbing Kansas City Center
Thu 06:58:23 AM 38.8897 -92.6347 270° West 372 428 38,000 630 Climbing Kansas City Center
Thu 06:59:24 AM 38.8903 -92.7697 270° West 376 433 38,000  Level Kansas City Center
Thu 07:00:24 AM 38.8897 -92.9075 270° West 383 441 38,000  Level Kansas City Center
Thu 07:01:24 AM 38.8897 -93.0439 270° West 383 441 38,000  Level Kansas City Center
Thu 07:02:25 AM 38.8894 -93.1811 270° West 384 442 38,000  Level Kansas City Center
Thu 07:03:25 AM 38.8892 -93.3156 270° West 381 438 38,000  Level Kansas City Center
Thu 07:04:25 AM 38.8886 -93.4522 270° West 381 438 38,000  Level Kansas City Center
Thu 07:05:26 AM 38.8881 -93.5894 270° West 384 442 38,000  Level Kansas City Center
Thu 07:06:26 AM 38.8878 -93.7258 270° West 382 440 38,000  Level Kansas City Center
Thu 07:07:27 AM 38.8875 -93.8644 270° West 373 429 38,000  Level Kansas City Center
Thu 07:08:27 AM 38.8867 -93.9936 270° West 378 435 38,000  Level Kansas City Center
Thu 07:09:28 AM 38.8853 -94.1200 269° West 371 427 38,000  Level Kansas City Center
Thu 07:10:28 AM 38.8844 -94.2472 270° West 372 428 38,000  Level Kansas City Center
Thu 07:11:29 AM 38.8828 -94.3939 269° West 369 425 38,000  Level Kansas City Center
Thu 07:12:29 AM 38.8808 -94.5222 269° West 372 428 38,000  Level Kansas City Center
Thu 07:13:30 AM 38.8792 -94.6500 269° West 374 430 38,000  Level Kansas City Center
Thu 07:14:30 AM 38.8767 -94.7992 269° West 374 430 38,000  Level Kansas City Center
Thu 07:15:31 AM 38.8742 -94.9281 269° West 376 433 38,000  Level Kansas City Center
Thu 07:16:32 AM 38.8722 -95.0581 269° West 378 435 38,000  Level Kansas City Center
Thu 07:17:32 AM 38.8689 -95.1875 268° West 377 434 38,000  Level Kansas City Center
Thu 07:18:33 AM 38.8669 -95.3394 269° West 378 435 38,000  Level Kansas City Center
Thu 07:19:34 AM 38.8647 -95.4717 269° West 384 442 38,000  Level Kansas City Center
Thu 07:20:34 AM 38.8625 -95.6039 269° West 386 444 38,000  Level Kansas City Center
Thu 07:21:35 AM 38.8592 -95.7583 268° West 386 444 38,000  Level Kansas City Center
Thu 07:22:36 AM 38.8556 -95.8900 268° West 387 445 38,000  Level Kansas City Center
Thu 07:23:37 AM 38.8528 -96.0197 268° West 380 437 38,000  Level Kansas City Center
Thu 07:24:38 AM 38.8483 -96.1714 268° West 380 437 38,000  Level Kansas City Center
Thu 07:25:38 AM 38.8458 -96.3000 269° West 379 436 38,000  Level Kansas City Center
Thu 07:26:39 AM 38.8417 -96.4275 268° West 376 433 38,000  Level Kansas City Center
Thu 07:27:40 AM 38.8381 -96.5592 268° West 372 428 38,000  Level Kansas City Center
Thu 07:28:41 AM 38.8336 -96.6908 268° West 371 427 38,000  Level Kansas City Center
Thu 07:29:42 AM 38.8294 -96.8217 268° West 369 425 38,000  Level Kansas City Center
Thu 07:30:43 AM 38.8250 -96.9531 268° West 370 426 38,000  Level Kansas City Center
Thu 07:31:43 AM 38.8211 -97.0842 268° West 369 425 38,000  Level Kansas City Center
Thu 07:32:44 AM 38.8169 -97.2144 268° West 368 423 38,000  Level Kansas City Center
Thu 07:33:45 AM 38.8117 -97.3733 268° West 373 429 38,000  Level Kansas City Center
Thu 07:34:46 AM 38.8067 -97.5067 267° West 375 432 38,000  Level Kansas City Center
Thu 07:35:47 AM 38.8025 -97.6317 268° West 379 436 38,000  Level Kansas City Center
Thu 07:36:48 AM 38.7956 -97.7858 267° West 387 445 38,000  Level Kansas City Center
Thu 07:37:49 AM 38.7906 -97.9186 267° West 392 451 38,000  Level Kansas City Center
Thu 07:38:50 AM 38.7847 -98.0586 267° West 395 455 38,000  Level Kansas City Center
Thu 07:39:51 AM 38.7781 -98.1983 267° West 396 456 38,000  Level Kansas City Center
Thu 07:40:52 AM 38.7722 -98.3392 267° West 397 457 38,000  Level Kansas City Center
Thu 07:41:53 AM 38.7656 -98.4797 267° West 397 457 38,000  Level Kansas City Center
Thu 07:42:53 AM 38.7589 -98.6194 267° West 395 455 38,000  Level Kansas City Center
Thu 07:43:54 AM 38.7536 -98.7597 267° West 394 453 38,000  Level Kansas City Center
Thu 07:44:55 AM 38.7464 -98.9008 266° West 396 456 38,000  Level Kansas City Center
Thu 07:45:56 AM 38.7372 -99.0700 266° West 399 459 38,000  Level Kansas City Center
Thu 07:46:57 AM 38.7292 -99.2117 266° West 399 459 38,000  Level Kansas City Center
Thu 07:47:58 AM 38.7225 -99.3533 267° West 400 460 38,000  Level Kansas City Center
Thu 07:48:59 AM 38.7150 -99.4950 266° West 399 459 38,000  Level Kansas City Center
Thu 07:50:00 AM 38.7067 -99.6436 266° West 399 459 38,000  Level Kansas City Center
Thu 07:51:01 AM 38.6981 -99.7764 265° West 396 456 38,000  Level Kansas City Center
Thu 07:52:02 AM 38.6897 -99.9339 266° West 397 457 38,000  Level Kansas City Center
Thu 07:53:03 AM 38.6808 -100.0669 265° West 394 453 38,000  Level Kansas City Center
Thu 07:54:05 AM 38.6736 -100.2022 266° West 397 457 38,000  Level Kansas City Center
Thu 07:55:06 AM 38.6631 -100.3608 265° West 400 460 38,000  Level Kansas City Center
Thu 07:56:07 AM 38.6547 -100.4967 266° West 401 461 38,000  Level Kansas City Center
Thu 07:57:08 AM 38.6447 -100.6567 265° West 404 465 38,000  Level Kansas City Center
Thu 07:58:09 AM 38.6364 -100.7925 266° West 403 464 38,000  Level Kansas City Center
Thu 07:59:10 AM 38.6269 -100.9286 265° West 403 464 38,000  Level Kansas City Center
Thu 08:00:11 AM 38.6156 -101.0878 265° West 403 464 38,000  Level Kansas City Center
Thu 08:01:22 AM 38.6050 -101.2439 265° West 402 463 38,000  Level Denver Center
Thu 08:02:22 AM 38.5953 -101.3806 265° West 403 464 38,000  Level Denver Center
Thu 08:03:22 AM 38.5831 -101.5419 265° West 408 470 38,000  Level Denver Center
Thu 08:04:23 AM 38.5733 -101.6753 265° West 400 460 38,000  Level Denver Center
Thu 08:05:23 AM 38.5631 -101.8097 264° West 397 457 38,000  Level Denver Center
Thu 08:06:24 AM 38.5514 -101.9656 265° West 396 456 38,000  Level Denver Center
Thu 08:07:24 AM 38.5431 -102.0753 264° West 393 452 38,000  Level Denver Center
Thu 08:08:25 AM 38.5317 -102.2303 265° West 393 452 38,000  Level Denver Center
Thu 08:09:25 AM 38.5186 -102.3858 264° West 395 455 38,000  Level Denver Center
Thu 08:10:26 AM 38.5083 -102.5192 264° West 396 456 38,000  Level Denver Center
Thu 08:11:26 AM 38.4969 -102.6536 264° West 398 458 38,000  Level Denver Center
Thu 08:12:27 AM 38.4844 -102.8117 264° West 400 460 38,000  Level Denver Center
Thu 08:13:28 AM 38.4722 -102.9475 263° West 403 464 38,000  Level Denver Center
Thu 08:14:28 AM 38.4614 -103.0819 264° West 399 459 38,000  Level Denver Center
Thu 08:15:29 AM 38.4486 -103.2372 264° West 397 457 38,000  Level Denver Center
Thu 08:16:30 AM 38.4361 -103.3706 263° West 396 456 38,000  Level Denver Center
Thu 08:17:30 AM 38.4236 -103.5164 264° West 392 451 38,000  Level Denver Center
Thu 08:18:31 AM 38.4111 -103.6472 263° West 389 448 38,000  Level Denver Center
Thu 08:19:32 AM 38.3994 -103.7783 264° West 391 450 38,000  Level Denver Center
Thu 08:20:32 AM 38.3850 -103.9314 263° West 390 449 38,000  Level Denver Center
Thu 08:21:33 AM 38.3731 -104.0611 263° West 389 448 38,000  Level Denver Center
Thu 08:22:34 AM 38.3594 -104.2019 263° West 389 448 38,000  Level Denver Center
Thu 08:23:35 AM 38.3464 -104.3392 263° West 390 449 38,000  Level Denver Center
Thu 08:24:36 AM 38.3333 -104.4753 263° West 388 447 38,000  Level Denver Center
Thu 08:25:36 AM 38.3206 -104.6064 263° West 391 450 38,000  Level Denver Center
Thu 08:26:37 AM 38.3053 -104.7614 263° West 396 456 38,000  Level Denver Center
Thu 08:27:38 AM 38.2914 -104.8939 262° West 395 455 38,000  Level Denver Center
Thu 08:28:39 AM 38.2758 -105.0486 263° West 396 456 38,000  Level Denver Center
Thu 08:29:40 AM 38.2639 -105.1592 262° West 396 456 38,000  Level Denver Center
Thu 08:30:41 AM 38.2486 -105.3133 263° West 394 453 38,000  Level Denver Center
Thu 08:31:42 AM 38.2314 -105.4647 262° West 390 449 38,000  Level Denver Center
Thu 08:32:43 AM 38.2178 -105.5958 263° West 391 450 38,000  Level Denver Center
Thu 08:33:56 AM 38.2036 -105.7275 262° West 392 451 38,000  Level Denver Center
Thu 08:34:57 AM 38.1839 -105.9014 262° West 391 450 38,000  Level Denver Center
Thu 08:35:58 AM 38.1700 -106.0336 262° West 393 452 38,000  Level Denver Center
Thu 08:36:59 AM 38.1542 -106.1683 262° West 397 457 38,000  Level Denver Center
Thu 08:38:00 AM 38.1414 -106.2803 262° West 398 458 38,000  Level Denver Center
Thu 08:39:01 AM 38.1228 -106.4469 262° West 395 455 38,000  Level Denver Center
Thu 08:40:03 AM 38.1028 -106.6136 261° West 396 456 38,000  Level Denver Center
Thu 08:41:04 AM 38.0875 -106.7439 262° West 391 450 38,000  Level Denver Center
Thu 08:42:05 AM 38.0717 -106.8758 261° West 393 452 38,000  Level Denver Center
Thu 08:43:06 AM 38.0536 -107.0289 262° West 391 450 38,000  Level Denver Center
Thu 08:44:07 AM 38.0381 -107.1619 262° West 396 456 38,000  Level Denver Center
Thu 08:45:08 AM 38.0214 -107.2967 261° West 393 452 38,000  Level Denver Center
Thu 08:46:09 AM 38.0025 -107.4481 261° West 387 445 38,000  Level Denver Center
Thu 08:47:11 AM 37.9861 -107.5786 261° West 391 450 38,000  Level Denver Center
Thu 08:48:12 AM 37.9697 -107.7092 261° West 394 453 38,000  Level Denver Center
Thu 08:49:13 AM 37.9508 -107.8622 261° West 394 453 38,000  Level Denver Center
Thu 08:50:14 AM 37.9333 -107.9925 260° West 392 451 38,000  Level Denver Center
Thu 08:51:15 AM 37.9133 -108.1483 261° West 401 461 38,000  Level Denver Center
Thu 08:52:17 AM 37.8958 -108.2808 261° West 399 459 38,000  Level Denver Center
Thu 08:53:18 AM 37.8794 -108.4136 261° West 398 458 38,000  Level Denver Center
Thu 08:54:19 AM 37.8589 -108.5672 260° West 399 459 38,000  Level Denver Center
Thu 08:55:20 AM 37.8408 -108.6978 260° West 397 457 38,000  Level Denver Center
Thu 08:56:21 AM 37.8203 -108.8506 260° West 396 456 38,000  Level Denver Center
Thu 08:57:23 AM 37.7983 -108.9786 258° West 392 451 38,000  Level Denver Center
Thu 08:58:24 AM 37.7656 -109.1056 252° West 395 455 38,000  Level Denver Center
Thu 08:59:25 AM 37.7286 -109.2528 252° West 394 453 38,000  Level Denver Center
Thu 09:00:26 AM 37.6972 -109.3803 253° West 395 455 38,000  Level Denver Center
Thu 09:01:27 AM 37.6653 -109.5053 252° West 391 450 38,000  Level Denver Center
Thu 09:02:29 AM 37.6281 -109.6539 252° West 396 456 38,000  Level Denver Center
Thu 09:03:30 AM 37.5967 -109.7797 253° West 395 455 38,000  Level Denver Center
Thu 09:04:31 AM 37.5594 -109.9267 252° West 394 453 38,000  Level Denver Center
Thu 09:05:32 AM 37.5256 -110.0542 252° West 399 459 38,000  Level Denver Center
Thu 09:06:33 AM 37.4936 -110.1814 252° West 400 460 38,000  Level Denver Center
Thu 09:07:34 AM 37.4567 -110.3256 252° West 394 453 38,000  Level Denver Center
Thu 09:08:47 AM 37.4214 -110.4583 252° West 398 458 38,000  Level Denver Center
Thu 09:09:49 AM 37.3797 -110.6175 252° West 399 459 38,000  Level Denver Center
Thu 09:10:50 AM 37.3453 -110.7483 252° West 397 457 38,000  Level Denver Center
Thu 09:11:51 AM 37.3103 -110.8811 252° West 400 460 38,000  Level Denver Center
Thu 09:12:52 AM 37.2750 -111.0125 251° West 399 459 38,000  Level Denver Center
Thu 09:13:53 AM 37.2400 -111.1464 252° West 403 464 38,000 -780 Level Denver Center
Thu 09:14:55 AM 37.2050 -111.2764 251° West 396 456 36,400 -2,098 Descending Denver Center
Thu 09:15:56 AM 37.1608 -111.4328 251° West 396 456 33,700 -2,164 Descending Denver Center
Thu 09:16:57 AM 37.1275 -111.5597 252° West 386 444 32,000 -836 Descending Denver Center
Thu 09:17:58 AM 37.0950 -111.6875 252° West 385 443 32,000  Level Denver Center
Thu 09:18:59 AM 37.0619 -111.8283 254° West 410 472 32,000  Level Denver Center
Thu 09:20:01 AM 37.0278 -111.9675 253° West 416 479 32,000  Level Denver Center
Thu 09:21:02 AM 36.9947 -112.1050 253° West 413 475 32,000  Level Denver Center
Thu 09:22:03 AM 36.9686 -112.2161 254° West 415 478 32,000  Level Denver Center
Thu 09:23:20 AM 36.9206 -112.4114 253° West 419 482 32,000  Level Los Angeles Center
Thu 09:24:21 AM 36.8794 -112.5797 253° West 421 484 32,000  Level Los Angeles Center
Thu 09:25:22 AM 36.8450 -112.7208 253° West 423 487 32,000  Level Los Angeles Center
Thu 09:26:23 AM 36.8089 -112.8611 252° West 424 488 32,000  Level Los Angeles Center
Thu 09:27:25 AM 36.7750 -113.0014 253° West 423 487 32,000  Level Los Angeles Center
Thu 09:28:26 AM 36.7397 -113.1417 253° West 422 486 32,000 -393 Level Los Angeles Center
Thu 09:29:27 AM 36.7044 -113.2797 252° West 420 483 31,200 -1,623 Descending Los Angeles Center
Thu 09:30:28 AM 36.6700 -113.4186 253° West 419 482 28,700 -2,104 Descending Los Angeles Center
Thu 09:31:41 AM 36.6367 -113.5508 253° West 406 467 26,500 -2,133 Descending Los Angeles Center
Thu 09:32:43 AM 36.5961 -113.7092 252° West 401 461 23,900 -2,341 Descending Los Angeles Center
Thu 09:33:44 AM 36.5622 -113.8375 252° West 394 453 21,700 -2,098 Descending Los Angeles Center
Thu 09:34:46 AM 36.5294 -113.9636 252° West 385 443 19,600 -2,000 Descending Los Angeles Center
Thu 09:36:11 AM 36.4872 -114.1289 252° West 389 448 16,800 -2,204 Descending Los Angeles Center
Thu 09:37:13 AM 36.4489 -114.2758 252° West 375 432 14,200 -2,043 Descending Los Angeles Center
Thu 09:38:29 AM 36.4078 -114.4353 252° West 352 405 12,100 -1,366 Descending Los Angeles Center
Thu 09:39:16 AM 36.3844 -114.4978 245° Southwest 337 388 11,400 -881 Descending Los Angeles Center
Thu 09:40:18 AM 36.3133 -114.5550 213° Southwest 310 357 10,500 -1,220 Descending Los Angeles Center
Thu 09:41:19 AM 36.2264 -114.6181 210° Southwest 303 349 8,900 -1,230 Descending Los Angeles Center
Thu 09:42:20 AM 36.1544 -114.6689 210° Southwest 299 344 8,000 -683 Descending Los Angeles Center
Thu 09:43:22 AM 36.0944 -114.7289 219° Southwest 291 335 7,500 -683 Descending Los Angeles Center
Thu 09:44:23 AM 36.0803 -114.8231 259° West 282 325 6,600 -683 Descending Los Angeles Center
Thu 09:45:25 AM 36.0703 -114.9064 262° West 265 305 6,100 -1,128 Descending Los Angeles Center
Thu 09:46:36 AM 36.0736 -114.9986 273° West 207 238 4,100 -1,366 Descending Los Angeles Center
Thu 09:47:28 AM 36.0739 -115.0444 270° West 211 243 3,300 -887 Descending Los Angeles Center
Thu 09:48:31 AM 36.0733 -115.1053 269° West 143 165 2,400 -585 Descending Los Angeles Center
Thu 09:49:31 AM 36.0736 -115.1469 270° West 160 184 2,100 -300 Descending Los Angeles Center
Thu 09:51:00 AM 36.0667 -115.1500 219° Southwest  Level FlightAware Approximate

Login

Don't have an account? Register now (free) for customized features, flight alerts, and more!